Time;durP1;ratioP1;P1;durP2;ratioP2;P2;SDS_P1;SDS_P2;PMS_P1;PMS_P2;Temp;Humidity;BMP_temperature;BMP_pressure;BME280_temperature;BME280_humidity;BME280_pressure;Samples;Min_cycle;Max_cycle;Signal;HPM_P1;HPM_P2
2022/08/18 00:00:30;;;;;;;5.53;2.10;;;;;;;16.62;68.88;100840.50;5006199;28;20066;-44
2022/08/18 00:03:04;;;;;;;4.03;1.88;;;;;;;16.62;68.84;100837.69;5001458;28;20060;-44
2022/08/18 00:05:50;;;;;;;5.28;2.10;;;;;;;16.60;68.89;100831.69;5005245;28;20054;-44
2022/08/18 00:08:18;;;;;;;3.25;2.40;;;;;;;16.60;68.89;100826.09;5009538;28;20050;-44
2022/08/18 00:10:45;;;;;;;4.50;2.47;;;;;;;16.60;68.84;100820.50;5007826;28;20041;-44
2022/08/18 00:13:12;;;;;;;4.50;2.40;;;;;;;16.62;68.82;100835.72;5004702;28;20046;-44
2022/08/18 00:15:39;;;;;;;3.33;2.28;;;;;;;16.63;68.69;100828.91;5008945;28;20550;-43
2022/08/18 00:18:14;;;;;;;5.28;2.67;;;;;;;16.63;68.77;100825.31;5009420;28;20041;-43
2022/08/18 00:20:41;;;;;;;5.22;2.60;;;;;;;16.63;68.78;100826.13;5009019;28;20416;-47
2022/08/18 00:23:08;;;;;;;7.35;3.15;;;;;;;16.60;68.78;100826.09;5001727;28;20042;-48
2022/08/18 00:25:35;;;;;;;4.50;2.72;;;;;;;16.59;68.77;100818.88;5007441;28;20060;-44
2022/08/18 00:28:03;;;;;;;5.15;2.53;;;;;;;16.58;69.09;100806.09;5004481;28;20475;-43
2022/08/18 00:30:31;;;;;;;6.80;3.15;;;;;;;16.55;68.90;100806.88;5007159;28;20052;-44
2022/08/18 00:33:00;;;;;;;4.60;2.30;;;;;;;16.54;68.96;100796.88;5008168;28;20129;-47
2022/08/18 00:35:37;;;;;;;4.95;2.65;;;;;;;16.55;68.95;100790.13;5005824;28;20069;-42
2022/08/18 00:38:06;;;;;;;5.68;4.57;;;;;;;16.56;69.06;100788.91;5003283;28;20050;-42
2022/08/18 00:40:44;;;;;;;3.95;2.63;;;;;;;16.58;68.93;100789.31;5005345;28;20622;-41
2022/08/18 00:43:18;;;;;;;5.15;2.78;;;;;;;16.57;68.93;100787.72;5006320;28;20048;-41
2022/08/18 00:45:45;;;;;;;3.90;2.38;;;;;;;16.54;68.92;100783.72;5008123;28;20045;-41
2022/08/18 00:48:13;;;;;;;6.28;3.10;;;;;;;16.53;68.95;100782.09;5008530;28;20508;-42
2022/08/18 00:50:52;;;;;;;7.22;2.38;;;;;;;16.53;69.02;100778.50;5008005;28;20153;-41
2022/08/18 00:53:26;;;;;;;4.05;2.53;;;;;;;16.51;69.04;100769.66;5002589;28;20050;-45
2022/08/18 00:55:57;;;;;;;7.38;2.97;;;;;;;16.51;68.89;100764.06;4992543;28;20077;-41
2022/08/18 00:58:33;;;;;;;5.68;2.63;;;;;;;16.48;69.07;100762.03;5002883;28;20034;-45
2022/08/18 01:01:05;;;;;;;5.22;2.58;;;;;;;16.44;69.25;100760.00;5002544;28;20072;-41
2022/08/18 01:03:33;;;;;;;2.20;2.00;;;;;;;16.42;69.32;100762.41;5013947;28;20099;-41
2022/08/18 01:06:08;;;;;;;4.55;2.22;;;;;;;16.43;69.44;100757.63;5017109;28;20041;-43
2022/08/18 01:08:37;;;;;;;3.88;2.45;;;;;;;16.43;69.34;100750.03;5022075;28;20049;-42
2022/08/18 01:11:12;;;;;;;5.63;2.30;;;;;;;16.44;69.36;100753.66;4990154;28;20073;-41
2022/08/18 01:13:41;;;;;;;2.55;2.33;;;;;;;16.43;69.41;100749.22;5001963;28;20143;-41
2022/08/18 01:21:50;;;;;;;6.80;2.40;;;;;;;16.36;69.73;100744.38;4994600;28;20045;-46
2022/08/18 01:27:17;;;;;;;4.72;2.83;;;;;;;16.35;69.72;100733.59;5010555;28;20077;-44
2022/08/18 01:29:49;;;;;;;4.25;2.20;;;;;;;16.34;69.71;100729.16;5003491;28;20050;-46
2022/08/18 01:32:19;;;;;;;9.10;3.20;;;;;;;16.32;69.41;100734.34;5009635;28;20046;-45
2022/08/18 01:34:48;;;;;;;7.80;2.85;;;;;;;16.30;69.63;100723.56;5000848;28;20112;-43
2022/08/18 01:37:22;;;;;;;5.80;2.78;;;;;;;16.28;69.86;100720.34;5011470;28;20158;-49
2022/08/18 01:39:49;;;;;;;6.07;2.65;;;;;;;16.28;69.93;100720.34;4993421;28;20085;-44
2022/08/18 01:42:36;;;;;;;4.97;2.92;;;;;;;16.27;70.01;100704.78;4994063;28;20163;-47
2022/08/18 01:45:06;;;;;;;3.47;2.28;;;;;;;16.27;70.14;100713.16;5006654;28;20066;-51
2022/08/18 01:47:35;;;;;;;6.10;3.17;;;;;;;16.26;70.16;100708.75;5020135;28;20537;-44
2022/08/18 01:50:21;;;;;;;7.68;2.72;;;;;;;16.22;70.17;100707.94;5013397;28;20046;-44
2022/08/18 01:52:48;;;;;;;5.53;2.67;;;;;;;16.23;70.34;100708.72;5000698;28;20084;-43
2022/08/18 01:55:16;;;;;;;6.60;3.63;;;;;;;16.21;70.58;100700.72;4995075;28;20049;-43
2022/08/18 01:57:44;;;;;;;3.65;2.47;;;;;;;16.19;70.49;100700.31;4995820;28;20097;-44
2022/08/18 02:00:15;;;;;;;4.53;2.97;;;;;;;16.18;70.58;100693.09;5004836;28;20491;-48
2022/08/18 02:02:42;;;;;;;5.25;2.47;;;;;;;16.17;70.52;100691.53;5013350;28;20577;-44
2022/08/18 02:05:18;;;;;;;3.58;2.75;;;;;;;16.18;70.54;100681.13;4998305;28;20451;-44
2022/08/18 02:07:44;;;;;;;4.25;2.83;;;;;;;16.16;70.46;100681.53;5019196;28;20072;-44
2022/08/18 02:10:12;;;;;;;4.38;1.95;;;;;;;16.18;70.39;100676.34;5018750;28;20050;-44
2022/08/18 02:12:42;;;;;;;3.08;2.30;;;;;;;16.17;69.99;100674.75;4996607;28;20049;-44
2022/08/18 02:15:11;;;;;;;7.65;2.67;;;;;;;16.15;70.10;100670.75;5005035;28;20531;-44
2022/08/18 02:17:40;;;;;;;4.03;2.50;;;;;;;16.12;70.24;100668.72;4995808;28;20046;-49
2022/08/18 02:20:09;;;;;;;1.98;1.83;;;;;;;16.04;69.95;100670.63;4996661;28;20568;-44
2022/08/18 02:22:36;;;;;;;5.20;2.92;;;;;;;16.03;69.61;100666.22;5004288;28;20054;-47
2022/08/18 02:25:04;;;;;;;3.83;2.05;;;;;;;16.01;69.32;100670.59;5019269;28;20425;-43
2022/08/18 02:27:34;;;;;;;4.68;2.00;;;;;;;15.99;69.13;100672.97;5007967;28;20049;-44
2022/08/18 02:30:03;;;;;;;3.88;1.92;;;;;;;15.97;69.05;100662.16;4994784;28;20038;-43
2022/08/18 02:32:31;;;;;;;4.70;2.38;;;;;;;15.95;68.99;100658.16;5009439;28;20553;-45
2022/08/18 02:34:58;;;;;;;7.85;3.63;;;;;;;15.95;68.72;100652.56;5002435;28;20045;-44
2022/08/18 02:37:25;;;;;;;8.45;2.58;;;;;;;15.94;68.36;100650.97;5016023;28;20136;-43
2022/08/18 02:39:51;;;;;;;3.60;2.25;;;;;;;15.90;68.02;100648.16;5002009;28;20816;-43
2022/08/18 02:42:18;;;;;;;3.40;2.72;;;;;;;15.88;67.83;100647.72;5011319;28;20061;-50
2022/08/18 02:44:45;;;;;;;3.95;2.35;;;;;;;15.86;67.77;100635.34;4992325;28;20436;-44
2022/08/18 02:47:12;;;;;;;3.88;2.20;;;;;;;15.83;67.66;100625.75;5005189;28;20073;-44
2022/08/18 02:49:39;;;;;;;5.63;2.72;;;;;;;15.82;67.63;100629.72;5006962;28;20042;-44
2022/08/18 02:52:06;;;;;;;4.90;2.70;;;;;;;15.80;67.51;100624.53;5002606;28;20045;-44
2022/08/18 02:54:36;;;;;;;6.07;2.28;;;;;;;15.76;67.38;100626.47;5008731;28;20042;-43
2022/08/18 02:57:11;;;;;;;7.10;3.58;;;;;;;15.74;67.40;100620.47;4991574;28;20038;-45
2022/08/18 02:59:39;;;;;;;5.20;2.45;;;;;;;15.74;67.42;100623.25;4992735;28;20038;-44
2022/08/18 03:02:08;;;;;;;6.22;2.63;;;;;;;15.74;67.36;100619.66;5066312;22;20048;-43
2022/08/18 03:04:35;;;;;;;6.50;2.42;;;;;;;15.75;67.49;100612.91;5067642;28;20064;-44
2022/08/18 03:07:04;;;;;;;4.80;2.13;;;;;;;15.74;67.64;100611.28;5068169;28;20043;-43
2022/08/18 03:09:33;;;;;;;4.82;2.38;;;;;;;15.73;67.79;100612.47;5069496;28;20044;-44
2022/08/18 03:12:00;;;;;;;5.15;2.60;;;;;;;15.69;67.76;100614.44;5068611;28;20048;-44
2022/08/18 03:14:28;;;;;;;5.05;2.25;;;;;;;15.66;68.12;100609.59;5067236;28;20052;-43
2022/08/18 03:16:55;;;;;;;5.53;2.40;;;;;;;15.61;68.13;100607.97;5068136;28;20537;-43
2022/08/18 03:19:24;;;;;;;5.40;2.97;;;;;;;15.58;67.80;100605.13;5070081;28;20393;-45
2022/08/18 03:21:51;;;;;;;5.47;3.40;;;;;;;15.55;67.62;100591.94;5070935;28;20051;-46
2022/08/18 03:24:18;;;;;;;4.63;2.45;;;;;;;15.54;67.46;100598.72;5067315;28;20067;-43
2022/08/18 03:26:50;;;;;;;5.38;2.58;;;;;;;15.53;67.44;100594.31;5061283;28;20122;-46
2022/08/18 03:29:18;;;;;;;3.33;2.45;;;;;;;15.50;67.37;100592.28;5061485;28;20106;-43
2022/08/18 03:31:47;;;;;;;8.93;2.58;;;;;;;15.49;67.48;100593.50;5065721;28;20049;-44
2022/08/18 03:34:20;;;;;;;9.50;2.80;;;;;;;15.51;67.41;100596.69;5070711;28;20032;-43
2022/08/18 03:36:49;;;;;;;4.80;2.45;;;;;;;15.52;67.38;100595.50;5069287;28;20086;-44
2022/08/18 03:39:18;;;;;;;5.00;2.50;;;;;;;15.50;67.42;100587.50;5069745;28;20041;-47
2022/08/18 03:41:45;;;;;;;4.18;2.45;;;;;;;15.49;67.48;100580.31;5069102;28;20086;-46
2022/08/18 03:44:31;;;;;;;7.13;2.42;;;;;;;15.51;67.42;100585.53;5068578;28;20048;-44
2022/08/18 03:47:00;;;;;;;7.60;2.78;;;;;;;15.49;67.80;100587.91;5068504;28;20494;-44
2022/08/18 03:49:27;;;;;;;4.25;2.45;;;;;;;15.49;67.47;100579.53;5067506;28;20071;-43
2022/08/18 03:51:54;;;;;;;3.95;2.58;;;;;;;15.50;67.56;100579.16;5065590;28;20049;-43
2022/08/18 03:54:21;;;;;;;6.60;2.83;;;;;;;15.51;67.59;100579.94;5068292;28;20102;-44
2022/08/18 03:56:48;;;;;;;4.60;2.30;;;;;;;15.53;67.81;100577.56;5069205;28;20068;-45
2022/08/18 03:59:20;;;;;;;4.55;2.35;;;;;;;15.51;67.80;100580.75;5067319;28;20056;-43
2022/08/18 04:01:48;;;;;;;3.30;2.22;;;;;;;15.48;68.09;100569.56;5067795;28;20061;-44
2022/08/18 04:04:20;;;;;;;2.67;2.47;;;;;;;15.49;68.29;100566.38;5063094;28;20036;-44
2022/08/18 04:06:52;;;;;;;3.75;2.55;;;;;;;15.51;68.74;100571.59;5062512;28;20126;-44
2022/08/18 04:09:21;;;;;;;3.35;2.38;;;;;;;15.51;68.78;100568.78;5067499;28;20059;-43
2022/08/18 04:11:48;;;;;;;4.30;2.60;;;;;;;15.52;68.82;100553.63;5068842;28;20087;-44
2022/08/18 04:14:19;;;;;;;4.32;3.10;;;;;;;15.53;69.03;100561.66;5069147;28;20788;-43
2022/08/18 04:16:47;;;;;;;5.47;2.75;;;;;;;15.56;69.16;100562.88;5068510;28;20040;-44
2022/08/18 04:19:16;;;;;;;6.45;3.25;;;;;;;15.57;69.36;100561.66;5066307;28;20068;-44
2022/08/18 04:21:55;;;;;;;5.18;3.10;;;;;;;15.56;69.60;100540.53;5060903;28;20049;-44
2022/08/18 04:24:24;;;;;;;3.65;3.00;;;;;;;15.56;69.70;100560.88;5064537;28;20078;-45
2022/08/18 04:26:55;;;;;;;4.65;2.25;;;;;;;15.57;69.64;100556.88;5069431;28;20054;-48
2022/08/18 04:29:22;;;;;;;6.00;2.88;;;;;;;15.60;69.88;100555.31;5068285;28;20044;-44
2022/08/18 04:31:50;;;;;;;5.70;2.92;;;;;;;15.60;70.12;100544.97;5067063;28;20087;-44
2022/08/18 04:34:19;;;;;;;6.28;3.28;;;;;;;15.59;70.15;100532.22;5060396;28;20052;-50
2022/08/18 04:36:47;;;;;;;7.43;3.63;;;;;;;15.59;70.27;100531.41;5064837;28;20036;-44
2022/08/18 04:39:14;;;;;;;5.35;2.90;;;;;;;15.60;70.31;100535.78;5063795;28;20136;-43
2022/08/18 04:41:42;;;;;;;4.55;2.95;;;;;;;15.59;70.58;100531.41;5065288;28;20045;-43
2022/08/18 04:44:11;;;;;;;4.45;2.97;;;;;;;15.59;70.66;100543.38;5068913;28;20045;-44
2022/08/18 04:46:42;;;;;;;6.75;3.85;;;;;;;15.62;70.81;100550.19;5067453;28;20048;-43
2022/08/18 04:49:12;;;;;;;7.47;3.35;;;;;;;15.60;70.88;100533.00;5065537;28;20117;-43
2022/08/18 04:53:43;;;;;;;6.05;2.88;;;;;;;15.61;71.02;100534.59;5064624;28;20040;-44
2022/08/18 04:54:54;;;;;;;4.35;3.75;;;;;;;15.59;70.77;100537.78;5066457;28;20055;-44
2022/08/18 04:57:22;;;;;;;5.43;2.70;;;;;;;15.58;71.13;100535.38;5065713;28;20501;-47
2022/08/18 04:59:51;;;;;;;5.60;3.20;;;;;;;15.60;71.34;100535.78;5065798;28;20076;-44
2022/08/18 05:02:19;;;;;;;5.28;3.00;;;;;;;15.59;71.27;100531.41;5067533;28;20055;-44
2022/08/18 05:04:46;;;;;;;4.47;3.88;;;;;;;15.58;71.46;100532.59;5060302;28;20051;-45
2022/08/18 05:07:19;;;;;;;7.60;4.82;;;;;;;15.57;71.66;100525.38;5069194;28;20054;-43
2022/08/18 05:09:46;;;;;;;9.35;2.72;;;;;;;15.58;71.84;100524.22;5051416;28;20493;-44
2022/08/18 05:12:14;;;;;;;4.10;2.92;;;;;;;15.56;72.29;100529.38;5055228;28;20044;-45
2022/08/18 05:14:45;;;;;;;4.95;2.80;;;;;;;15.55;72.45;100522.19;5069082;28;20040;-44
2022/08/18 05:17:15;;;;;;;4.88;2.80;;;;;;;15.54;72.73;100528.97;5067956;28;20052;-45
2022/08/18 05:19:43;;;;;;;3.85;2.72;;;;;;;15.53;72.84;100530.16;5069227;28;20041;-45
2022/08/18 05:22:16;;;;;;;3.75;2.70;;;;;;;15.53;72.81;100522.59;5068826;28;20076;-43
2022/08/18 05:24:44;;;;;;;5.88;3.00;;;;;;;15.54;73.36;100528.97;5068772;28;20052;-45
2022/08/18 05:27:12;;;;;;;4.88;3.35;;;;;;;15.54;73.51;100523.38;5051019;28;20094;-49
2022/08/18 05:29:39;;;;;;;6.40;3.03;;;;;;;15.52;73.84;100526.53;5067323;28;20048;-43
2022/08/18 05:32:13;;;;;;;6.13;3.00;;;;;;;15.53;74.22;100527.34;5068203;28;20554;-44
2022/08/18 05:35:11;;;;;;;3.35;2.45;;;;;;;15.50;74.49;100517.75;5067348;28;20386;-43
2022/08/18 05:37:38;;;;;;;4.45;2.67;;;;;;;15.49;74.81;100507.00;5068746;28;20086;-43
2022/08/18 05:40:07;;;;;;;3.97;3.13;;;;;;;15.47;75.31;100500.97;5068413;28;20037;-44
2022/08/18 05:42:38;;;;;;;;;;;;;;;15.44;75.70;100507.28;5065289;28;20068;-43
2022/08/18 05:45:15;;;;;;;4.40;2.50;;;;;;;15.42;75.49;100504.09;5062856;28;20479;-45
2022/08/18 05:47:43;;;;;;;5.82;2.92;;;;;;;15.41;75.67;100510.88;5063019;28;20557;-50
2022/08/18 05:50:17;;;;;;;3.63;2.63;;;;;;;15.42;75.90;100513.25;5065148;28;20102;-43
2022/08/18 05:53:08;;;;;;;5.38;2.72;;;;;;;15.43;76.44;100512.09;5064126;28;20090;-43
2022/08/18 05:58:54;;;;;;;5.50;2.60;;;;;;;15.40;76.21;100492.50;5061786;28;20086;-44
2022/08/18 06:01:26;;;;;;;3.25;2.47;;;;;;;15.45;76.67;100492.16;5061578;28;20045;-43
2022/08/18 06:04:00;;;;;;;2.90;2.40;;;;;;;15.47;76.79;100495.41;5063775;28;20056;-43
2022/08/18 06:06:29;;;;;;;5.20;2.70;;;;;;;15.50;76.94;100495.44;5065527;28;20056;-44
2022/08/18 06:09:42;;;;;;;2.83;2.58;;;;;;;15.52;77.07;100493.06;5061741;28;20040;-44
2022/08/18 06:12:21;;;;;;;4.57;2.88;;;;;;;15.53;76.90;100485.50;5062362;28;20083;-43
2022/08/18 06:14:48;;;;;;;5.32;2.90;;;;;;;15.54;77.16;100476.72;5065067;28;20434;-44
2022/08/18 06:17:31;;;;;;;2.22;1.80;;;;;;;15.57;77.58;100477.94;5044471;28;20094;-45
2022/08/18 06:20:23;;;;;;;3.42;2.17;;;;;;;15.55;77.42;100492.28;5048849;28;20048;-44
2022/08/18 06:22:55;;;;;;;4.07;2.50;;;;;;;15.56;77.45;100477.16;5064297;28;20068;-47
2022/08/18 06:25:34;;;;;;;2.63;2.28;;;;;;;15.58;77.56;100474.78;5063353;28;20093;-48
2022/08/18 06:28:21;;;;;;;2.97;1.77;;;;;;;15.63;77.82;100465.25;5062747;28;20048;-44
2022/08/18 06:31:15;;;;;;;4.50;2.08;;;;;;;15.68;77.70;100470.47;5063144;28;20045;-43
2022/08/18 06:33:50;;;;;;;5.15;2.58;;;;;;;15.71;77.86;100478.88;5061557;28;20111;-44
2022/08/18 06:36:59;;;;;;;2.30;1.92;;;;;;;15.78;77.97;100480.91;5064234;28;20044;-43
2022/08/18 06:39:33;;;;;;;3.00;1.63;;;;;;;15.79;77.88;100474.16;5062952;28;20059;-48
2022/08/18 06:42:04;;;;;;;2.15;1.63;;;;;;;15.82;77.95;100473.38;5060143;28;20510;-46
2022/08/18 06:44:47;;;;;;;2.30;1.10;;;;;;;15.85;78.03;100469.81;5062492;28;20443;-44
2022/08/18 06:47:17;;;;;;;2.10;1.30;;;;;;;15.89;77.97;100459.47;5060811;28;20127;-44
2022/08/18 06:49:47;;;;;;;6.88;1.40;;;;;;;15.93;78.08;100474.28;5062869;28;20133;-44
2022/08/18 06:52:36;;;;;;;2.97;1.70;;;;;;;15.94;78.20;100461.91;5059177;28;20543;-43
2022/08/18 06:55:02;;;;;;;1.90;1.20;;;;;;;15.97;78.23;100469.50;5064753;28;20044;-44
2022/08/18 06:57:51;;;;;;;2.63;1.02;;;;;;;15.98;78.42;100468.31;5062602;28;20029;-44
2022/08/18 07:00:18;;;;;;;1.15;0.93;;;;;;;16.00;78.47;100468.72;5063733;28;20040;-43
2022/08/18 07:02:51;;;;;;;1.90;1.67;;;;;;;16.04;78.43;100463.19;5063454;28;20060;-44
2022/08/18 07:05:26;;;;;;;2.22;1.30;;;;;;;16.09;78.51;100460.81;5069189;28;20032;-46
2022/08/18 07:08:09;;;;;;;1.65;1.13;;;;;;;16.13;78.79;100458.84;5066942;28;20052;-43
2022/08/18 07:11:09;;;;;;;2.75;1.10;;;;;;;16.15;78.74;100459.25;5060197;28;20041;-44
2022/08/18 07:13:43;;;;;;;0.93;0.60;;;;;;;16.22;78.70;100459.31;5067183;28;20093;-44
2022/08/18 07:16:22;;;;;;;2.67;0.52;;;;;;;16.33;78.77;100462.97;5066846;28;20053;-44
2022/08/18 07:19:15;;;;;;;1.05;0.55;;;;;;;16.46;78.67;100455.03;5064204;28;20119;-44
2022/08/18 07:21:43;;;;;;;1.33;0.70;;;;;;;16.62;78.64;100458.34;5067202;28;20048;-43
2022/08/18 07:24:19;;;;;;;2.28;0.22;;;;;;;16.80;78.42;100450.03;5067308;28;20151;-43
2022/08/18 07:27:08;;;;;;;0.88;0.60;;;;;;;17.00;78.16;100456.88;5067788;28;20048;-44
2022/08/18 07:30:12;;;;;;;0.47;0.47;;;;;;;17.19;77.89;100450.91;5057207;28;20041;-44
2022/08/18 07:32:53;;;;;;;1.17;0.52;;;;;;;17.28;77.73;100454.16;5067867;28;20420;-43
2022/08/18 07:35:35;;;;;;;0.70;0.43;;;;;;;17.28;77.53;100453.34;5071225;28;20498;-50
2022/08/18 07:38:12;;;;;;;0.30;0.15;;;;;;;17.28;77.56;100454.16;5061571;28;20052;-43
2022/08/18 07:41:07;;;;;;;0.63;0.35;;;;;;;17.26;77.50;100444.56;5071481;28;20041;-44
2022/08/18 07:43:52;;;;;;;0.28;0.25;;;;;;;17.28;77.49;100437.34;5067250;28;20097;-43
2022/08/18 07:46:46;;;;;;;0.20;0.20;;;;;;;17.32;77.45;100437.34;5051388;28;20049;-44
2022/08/18 07:49:19;;;;;;;0.20;0.20;;;;;;;17.34;77.56;100452.53;5034941;28;20512;-43
2022/08/18 07:52:05;;;;;;;1.25;0.20;;;;;;;17.44;77.48;100451.75;5071519;28;20052;-44
2022/08/18 07:55:10;;;;;;;3.00;0.30;;;;;;;17.56;77.34;100451.38;5055970;28;20059;-43
2022/08/18 07:57:52;;;;;;;0.10;0.10;;;;;;;17.58;77.32;100448.97;5069881;28;20098;-47
2022/08/18 08:00:23;;;;;;;0.10;0.10;;;;;;;17.62;77.26;100446.19;5069919;28;20036;-43
2022/08/18 08:03:44;;;;;;;0.20;0.10;;;;;;;17.62;77.24;100447.00;5050612;28;20041;-48
2022/08/18 08:06:22;;;;;;;0.80;0.35;;;;;;;17.63;77.36;100442.97;5065207;28;20568;-47
2022/08/18 08:09:28;;;;;;;0.30;0.20;;;;;;;17.66;77.29;100438.59;5068653;28;20041;-44
2022/08/18 08:11:59;;;;;;;1.45;0.00;;;;;;;17.68;77.17;100435.41;5068471;28;20080;-44
2022/08/18 08:15:01;;;;;;;0.60;0.22;;;;;;;17.69;77.28;100431.38;5066494;28;20036;-44
2022/08/18 08:17:58;;;;;;;0.13;0.13;;;;;;;17.71;77.21;100427.00;5055727;28;20040;-45
2022/08/18 08:20:36;;;;;;;0.25;0.10;;;;;;;17.73;77.01;100421.00;5067530;28;20259;-44
2022/08/18 08:23:31;;;;;;;0.43;0.20;;;;;;;17.73;77.15;100435.00;5051712;28;20044;-44
2022/08/18 08:26:23;;;;;;;2.60;0.38;;;;;;;17.66;77.39;100429.41;5056363;28;20441;-46
2022/08/18 08:29:24;;;;;;;0.30;0.20;;;;;;;17.60;77.44;100435.41;5060145;28;20095;-44
2022/08/18 08:32:02;;;;;;;2.38;0.30;;;;;;;17.57;77.56;100439.00;5040444;28;20101;-45
2022/08/18 08:34:47;;;;;;;0.35;0.35;;;;;;;17.64;77.71;100422.19;5051845;28;20149;-47
2022/08/18 08:37:23;;;;;;;1.85;0.10;;;;;;;17.79;77.53;100413.78;5035792;28;20264;-46
2022/08/18 08:39:59;;;;;;;0.90;0.20;;;;;;;17.89;77.49;100401.78;5036143;28;20056;-45
2022/08/18 08:42:45;;;;;;;0.10;0.08;;;;;;;17.98;77.31;100402.13;5046053;28;20528;-46
2022/08/18 08:45:29;;;;;;;0.13;0.03;;;;;;;18.07;77.21;100405.34;5069621;28;20596;-49
2022/08/18 08:48:12;;;;;;;0.38;0.15;;;;;;;18.14;77.32;100391.28;5051605;28;20476;-43
2022/08/18 08:50:54;;;;;;;0.68;0.20;;;;;;;18.21;77.23;100403.28;5069390;28;20500;-43
2022/08/18 08:53:47;;;;;;;0.50;0.30;;;;;;;18.32;77.00;100403.25;5058234;28;20063;-43
2022/08/18 08:56:15;;;;;;;1.60;0.28;;;;;;;18.40;76.90;100402.00;5040007;28;20082;-45
2022/08/18 08:59:08;;;;;;;1.70;0.25;;;;;;;18.56;76.82;100398.78;5067964;28;20110;-42
2022/08/18 09:02:08;;;;;;;0.57;0.13;;;;;;;19.04;76.55;100401.72;5060878;28;20083;-48
2022/08/18 09:04:54;;;;;;;0.10;0.10;;;;;;;19.36;75.28;100405.09;5025304;28;20138;-43
2022/08/18 09:08:02;;;;;;;0.13;0.13;;;;;;;19.65;75.29;100405.69;5069169;28;20044;-44
2022/08/18 09:10:41;;;;;;;1.85;0.20;;;;;;;19.81;74.62;100397.50;5060773;28;20075;-43
2022/08/18 09:13:26;;;;;;;0.30;0.20;;;;;;;19.84;74.19;100389.06;5069187;28;20090;-44
2022/08/18 09:16:20;;;;;;;0.55;0.30;;;;;;;19.73;73.77;100393.97;5068881;28;20495;-44
2022/08/18 09:18:58;;;;;;;;;;;;;;;19.56;73.72;100385.72;5069241;28;20082;-45
2022/08/18 09:21:49;;;;;;;0.65;0.10;;;;;;;19.43;74.14;100382.63;5067995;28;19920;-44
2022/08/18 09:24:22;;;;;;;1.42;0.22;;;;;;;19.37;73.88;100381.44;5056993;28;20071;-43
2022/08/18 09:27:02;;;;;;;0.80;0.20;;;;;;;19.33;73.92;100372.22;5056307;28;20056;-43
2022/08/18 09:29:38;;;;;;;1.92;0.20;;;;;;;19.36;73.89;100365.78;5068699;28;20036;-43
2022/08/18 09:32:19;;;;;;;0.60;0.20;;;;;;;19.42;73.86;100366.97;5068554;28;20051;-44
2022/08/18 09:34:55;;;;;;;0.20;0.20;;;;;;;19.43;73.37;100365.78;5068508;28;20056;-43
2022/08/18 09:37:31;;;;;;;0.47;0.45;;;;;;;19.44;73.52;100356.94;5060541;28;20072;-44
2022/08/18 09:43:38;;;;;;;0.85;0.40;;;;;;;19.61;73.21;100363.59;4992454;28;20407;-45
2022/08/18 09:46:07;;;;;;;1.98;0.68;;;;;;;19.69;72.96;100364.34;5067446;28;20102;-44
2022/08/18 09:48:40;;;;;;;1.55;0.30;;;;;;;19.79;72.75;100369.84;5067722;28;20067;-45
2022/08/18 09:51:14;;;;;;;0.52;0.20;;;;;;;19.86;72.35;100352.09;5068408;28;20148;-46
2022/08/18 09:53:47;;;;;;;3.55;0.40;;;;;;;19.92;72.15;100351.25;5068690;28;20174;-44
2022/08/18 09:56:16;;;;;;;1.35;0.30;;;;;;;19.96;71.89;100351.22;5068359;28;20452;-44
2022/08/18 09:59:04;;;;;;;1.13;0.20;;;;;;;19.98;71.88;100338.34;5068572;28;20280;-45
2022/08/18 10:01:38;;;;;;;0.40;0.20;;;;;;;20.01;71.76;100325.47;5060530;28;20060;-43
2022/08/18 10:04:26;;;;;;;1.70;0.40;;;;;;;20.09;71.88;100323.34;5068156;28;20053;-44
2022/08/18 10:07:13;;;;;;;0.40;0.40;;;;;;;20.12;71.51;100325.34;5056517;28;20152;-46
2022/08/18 10:10:06;;;;;;;0.40;0.40;;;;;;;20.17;71.57;100311.63;5068311;28;20139;-44
2022/08/18 10:13:22;;;;;;;1.77;0.40;;;;;;;20.31;71.50;100310.63;5068303;28;20048;-44
2022/08/18 10:16:27;;;;;;;1.02;0.50;;;;;;;20.42;71.20;100316.91;5054714;28;20487;-43
2022/08/18 10:19:03;;;;;;;2.15;0.55;;;;;;;20.50;71.16;100310.78;5061791;28;20496;-44
2022/08/18 10:21:59;;;;;;;0.50;0.20;;;;;;;20.56;70.81;100319.56;5067463;28;20045;-45
2022/08/18 10:24:35;;;;;;;0.40;0.20;;;;;;;20.55;70.60;100307.50;5068101;28;20076;-41
2022/08/18 10:27:05;;;;;;;0.20;0.20;;;;;;;20.53;70.23;100306.34;5068310;28;20040;-43
2022/08/18 10:29:45;;;;;;;0.95;0.30;;;;;;;20.57;70.40;100304.28;5068165;28;20401;-45
2022/08/18 10:32:12;;;;;;;0.45;0.40;;;;;;;20.60;69.71;100300.59;5067155;28;20048;-43
2022/08/18 10:34:43;;;;;;;0.38;0.20;;;;;;;20.60;69.69;100303.41;5062078;28;20051;-41
2022/08/18 10:37:46;;;;;;;1.33;0.22;;;;;;;20.64;69.58;100296.53;5066640;28;20118;-43
2022/08/18 10:40:33;;;;;;;0.52;0.32;;;;;;;20.83;69.15;100297.06;5070021;28;20131;-42
2022/08/18 10:43:44;;;;;;;2.15;0.35;;;;;;;21.04;69.05;100297.50;5072049;28;20048;-43
2022/08/18 10:46:27;;;;;;;0.55;0.13;;;;;;;21.28;68.24;100295.53;4978527;28;20050;-44
2022/08/18 10:49:05;;;;;;;1.95;0.30;;;;;;;21.43;67.98;100296.88;5067446;28;20052;-47
2022/08/18 10:51:57;;;;;;;0.28;0.28;;;;;;;21.53;67.73;100300.69;5064836;28;20166;-43
2022/08/18 10:55:11;;;;;;;0.47;0.20;;;;;;;21.58;67.44;100303.81;5061443;28;20151;-43
2022/08/18 10:57:47;;;;;;;0.30;0.10;;;;;;;21.61;67.41;100291.69;5064090;28;20565;-44
2022/08/18 11:00:19;;;;;;;1.45;0.20;;;;;;;21.70;67.10;100285.50;5054060;28;20090;-51
2022/08/18 11:03:08;;;;;;;2.92;0.30;;;;;;;21.74;66.91;100277.75;5067040;28;20057;-44
2022/08/18 11:06:05;;;;;;;3.30;0.20;;;;;;;21.59;66.68;100284.91;5064832;28;20045;-44
2022/08/18 11:08:48;;;;;;;0.88;0.10;;;;;;;21.48;66.80;100276.66;5064287;28;20043;-43
2022/08/18 11:11:28;;;;;;;0.10;0.10;;;;;;;21.41;66.72;100278.81;5070656;28;20079;-45
2022/08/18 11:14:13;;;;;;;0.98;0.10;;;;;;;21.34;66.87;100276.13;5069835;28;20437;-45
2022/08/18 11:17:01;;;;;;;0.80;0.20;;;;;;;21.27;67.25;100264.97;5066469;28;20152;-43
2022/08/18 11:19:34;;;;;;;0.10;0.10;;;;;;;21.17;67.27;100267.56;5065678;28;20441;-43
2022/08/18 11:22:21;;;;;;;0.60;0.15;;;;;;;21.08;67.49;100258.84;5062243;28;20088;-48
2022/08/18 11:25:00;;;;;;;0.10;0.10;;;;;;;21.04;67.49;100262.94;5060715;28;20056;-43
2022/08/18 11:27:35;;;;;;;0.25;0.20;;;;;;;21.04;67.62;100251.69;5071448;28;20482;-43
2022/08/18 11:30:08;;;;;;;1.55;0.10;;;;;;;21.02;67.82;100254.91;5067415;28;20387;-50
2022/08/18 11:32:40;;;;;;;1.25;0.25;;;;;;;21.04;67.81;100246.06;5058897;28;20379;-44
2022/08/18 11:35:26;;;;;;;1.67;0.17;;;;;;;21.05;68.21;100248.41;5066195;28;20053;-46
2022/08/18 11:37:59;;;;;;;0.10;0.10;;;;;;;21.03;68.27;100239.63;5068996;28;20459;-47
2022/08/18 11:40:41;;;;;;;1.67;0.13;;;;;;;20.97;68.50;100237.75;5065617;28;20040;-43
2022/08/18 11:43:34;;;;;;;1.50;0.30;;;;;;;20.88;68.43;100237.47;5047602;28;20409;-43
2022/08/18 11:46:24;;;;;;;2.63;0.00;;;;;;;20.86;68.68;100234.31;5050615;28;20040;-43
2022/08/18 11:48:58;;;;;;;0.30;0.10;;;;;;;20.80;68.55;100239.63;5068127;28;20037;-44
2022/08/18 11:51:34;;;;;;;0.85;0.10;;;;;;;20.77;68.62;100246.09;5059425;28;20135;-42
2022/08/18 11:54:20;;;;;;;0.52;0.00;;;;;;;20.72;69.17;100240.94;5064469;28;20551;-42
2022/08/18 11:56:50;;;;;;;0.10;0.10;;;;;;;20.70;69.21;100236.97;5065618;28;20044;-43
2022/08/18 11:59:27;;;;;;;0.65;0.17;;;;;;;20.72;69.34;100242.97;5059103;28;20049;-43
2022/08/18 12:02:21;;;;;;;0.55;0.10;;;;;;;20.73;69.94;100239.72;5066953;28;20044;-43
2022/08/18 12:05:01;;;;;;;1.65;0.17;;;;;;;20.78;69.86;100236.44;5066466;28;20141;-45
2022/08/18 12:07:41;;;;;;;0.03;0.03;;;;;;;20.78;70.35;100230.81;5068721;28;20083;-44
2022/08/18 12:10:29;;;;;;;0.03;0.03;;;;;;;20.78;70.46;100222.38;5070015;28;20048;-44
2022/08/18 12:12:58;;;;;;;0.65;0.20;;;;;;;20.79;70.47;100229.56;5070080;28;20190;-44
2022/08/18 12:15:32;;;;;;;1.00;0.10;;;;;;;20.80;70.85;100239.63;5068730;28;20052;-46
2022/08/18 12:18:14;;;;;;;0.10;0.10;;;;;;;20.77;70.99;100229.22;5066122;28;20076;-49
2022/08/18 12:20:54;;;;;;;;;;;;;;;20.71;71.17;100233.72;5070609;28;20098;-44
2022/08/18 12:23:23;;;;;;;0.40;0.20;;;;;;;20.68;70.84;100234.56;5069884;28;19924;-47
2022/08/18 12:25:49;;;;;;;0.10;0.10;;;;;;;20.65;71.45;100235.44;5069921;28;20517;-45